Time;durP1;ratioP1;P1;durP2;ratioP2;P2;SDS_P1;SDS_P2;PMS_P1;PMS_P2;Temp;Humidity;BMP_temperature;BMP_pressure;BME280_temperature;BME280_humidity;BME280_pressure;Samples;Min_cycle;Max_cycle;Signal;HPM_P1;HPM_P2
2022/08/21 00:02:16;;;;;;;7.55;3.83;;;19.00;99.90;;;;;;4974082;28;20033;-50
2022/08/21 00:04:42;;;;;;;5.65;3.47;;;18.90;99.90;;;;;;4973046;28;20049;-48
2022/08/21 00:07:07;;;;;;;7.93;3.90;;;18.90;99.90;;;;;;4972883;28;20117;-50
2022/08/21 00:09:33;;;;;;;8.85;3.90;;;18.80;99.90;;;;;;4974297;28;20069;-49
2022/08/21 00:11:58;;;;;;;8.18;3.80;;;18.70;99.90;;;;;;4972838;28;20235;-50
2022/08/21 00:14:24;;;;;;;4.43;3.22;;;18.70;99.90;;;;;;4974290;28;20077;-51
2022/08/21 00:16:49;;;;;;;8.70;4.30;;;18.70;99.90;;;;;;4974321;28;20033;-48
2022/08/21 00:19:15;;;;;;;9.68;3.67;;;18.70;99.90;;;;;;4973979;28;20030;-48
2022/08/21 00:21:41;;;;;;;5.85;3.72;;;18.60;99.90;;;;;;4974025;28;20026;-48
2022/08/21 00:24:06;;;;;;;6.85;4.10;;;18.60;99.90;;;;;;4973610;28;20023;-47
2022/08/21 00:26:32;;;;;;;8.20;3.83;;;18.60;99.90;;;;;;4974141;28;20381;-49
2022/08/21 00:28:57;;;;;;;8.35;4.50;;;18.60;99.90;;;;;;4974003;28;20084;-49
2022/08/21 00:31:23;;;;;;;13.52;8.00;;;18.70;99.90;;;;;;4973803;28;20145;-50
2022/08/21 00:33:48;;;;;;;23.23;8.07;;;18.60;99.90;;;;;;4972730;28;20033;-47
2022/08/21 00:36:14;;;;;;;5.80;3.72;;;18.60;99.90;;;;;;4973806;28;20031;-49
2022/08/21 00:38:40;;;;;;;9.93;4.32;;;18.50;99.90;;;;;;4973582;28;20085;-47
2022/08/21 00:41:08;;;;;;;7.32;4.07;;;18.40;99.90;;;;;;4973520;28;20026;-48
2022/08/21 00:43:36;;;;;;;8.38;4.10;;;18.40;99.90;;;;;;4972876;28;20031;-48
2022/08/21 00:46:04;;;;;;;7.88;4.05;;;18.30;99.90;;;;;;4973941;28;20476;-49
2022/08/21 00:48:30;;;;;;;11.93;4.45;;;18.30;99.90;;;;;;4972233;28;20031;-51
2022/08/21 00:51:05;;;;;;;12.13;4.32;;;18.30;99.90;;;;;;4974015;28;20452;-54
2022/08/21 00:53:32;;;;;;;11.55;4.53;;;18.30;99.90;;;;;;4973866;28;20097;-48
2022/08/21 00:55:59;;;;;;;4.93;3.45;;;18.30;99.90;;;;;;4973411;28;20034;-50
2022/08/21 00:58:27;;;;;;;7.30;3.60;;;18.30;99.90;;;;;;4973713;28;20077;-51
2022/08/21 01:00:53;;;;;;;12.00;4.65;;;18.30;99.90;;;;;;4973098;28;20061;-48
2022/08/21 01:03:22;;;;;;;8.25;3.97;;;18.30;99.90;;;;;;4971606;28;20069;-51
2022/08/21 01:05:47;;;;;;;11.45;4.78;;;18.30;99.90;;;;;;4973208;28;20098;-51
2022/08/21 01:08:14;;;;;;;8.70;3.90;;;18.30;99.90;;;;;;4973042;28;20118;-48
2022/08/21 01:10:41;;;;;;;9.43;4.00;;;18.30;99.90;;;;;;4973069;28;20045;-48
2022/08/21 01:13:09;;;;;;;9.05;4.13;;;18.30;99.90;;;;;;4972740;28;20489;-49
2022/08/21 01:15:38;;;;;;;8.60;4.30;;;18.30;99.90;;;;;;4973186;28;20110;-48
2022/08/21 01:18:07;;;;;;;7.60;3.55;;;18.30;99.90;;;;;;4973173;28;20117;-51
2022/08/21 01:20:34;;;;;;;14.65;4.25;;;18.30;99.90;;;;;;4972948;28;20031;-49
2022/08/21 01:23:04;;;;;;;11.35;4.32;;;18.30;99.90;;;;;;4972389;28;20082;-49
2022/08/21 01:25:31;;;;;;;11.13;4.18;;;18.30;99.90;;;;;;4973016;28;20535;-53
2022/08/21 01:27:58;;;;;;;8.60;3.63;;;18.30;99.90;;;;;;4973027;28;20029;-51
2022/08/21 01:30:27;;;;;;;7.10;3.65;;;18.20;99.90;;;;;;4972837;28;20034;-49
2022/08/21 01:32:53;;;;;;;11.30;4.22;;;18.20;99.90;;;;;;4972554;28;20029;-51
2022/08/21 01:35:20;;;;;;;7.75;4.00;;;18.20;99.90;;;;;;4972753;28;20027;-49
2022/08/21 01:37:47;;;;;;;6.80;4.43;;;18.20;99.90;;;;;;4972797;28;20034;-49
2022/08/21 01:40:16;;;;;;;5.82;3.80;;;18.20;99.90;;;;;;4972638;28;20408;-49
2022/08/21 01:42:42;;;;;;;10.60;4.03;;;18.20;99.90;;;;;;4971732;28;20050;-50
2022/08/21 01:45:08;;;;;;;13.10;4.43;;;18.10;99.90;;;;;;4972599;28;20027;-53
2022/08/21 01:47:35;;;;;;;6.07;3.42;;;18.10;99.90;;;;;;4972679;28;20031;-50
2022/08/21 01:50:02;;;;;;;7.13;3.33;;;18.20;99.90;;;;;;4972580;28;20034;-48
2022/08/21 01:52:28;;;;;;;6.45;3.78;;;18.20;99.90;;;;;;4972274;28;20035;-49
2022/08/21 01:54:54;;;;;;;8.25;4.00;;;18.20;99.90;;;;;;4972478;28;20039;-52
2022/08/21 01:57:20;;;;;;;10.23;3.75;;;18.20;99.90;;;;;;4972675;28;20031;-51
2022/08/21 01:59:45;;;;;;;10.82;4.07;;;18.20;99.90;;;;;;4972566;28;20109;-51
2022/08/21 02:02:11;;;;;;;10.68;3.65;;;18.10;99.90;;;;;;4972155;28;20423;-49
2022/08/21 02:04:36;;;;;;;8.65;3.92;;;18.00;99.90;;;;;;4972450;28;20018;-50
2022/08/21 02:07:03;;;;;;;9.65;4.22;;;18.00;99.90;;;;;;4972516;28;20035;-51
2022/08/21 02:09:29;;;;;;;8.52;3.85;;;17.90;99.90;;;;;;4971132;28;20023;-50
2022/08/21 02:11:54;;;;;;;10.05;3.67;;;17.80;99.90;;;;;;4972288;28;20045;-51
2022/08/21 02:14:20;;;;;;;6.68;3.80;;;17.70;99.90;;;;;;4972420;28;20035;-49
2022/08/21 02:16:46;;;;;;;8.05;4.43;;;17.60;99.90;;;;;;4972516;28;20027;-53
2022/08/21 02:19:13;;;;;;;7.97;3.90;;;17.50;99.90;;;;;;4972370;28;20061;-50
2022/08/21 02:21:39;;;;;;;8.68;3.53;;;17.50;99.90;;;;;;4972311;28;20031;-48
2022/08/21 02:24:05;;;;;;;10.25;4.70;;;17.50;99.90;;;;;;4971006;28;20110;-48
2022/08/21 02:26:31;;;;;;;8.77;4.10;;;17.40;99.90;;;;;;4972411;28;20027;-48
2022/08/21 02:28:56;;;;;;;5.50;3.63;;;17.40;99.90;;;;;;4972745;28;20483;-50
2022/08/21 02:31:22;;;;;;;8.43;4.00;;;17.40;99.90;;;;;;4972089;28;20031;-49
2022/08/21 02:33:48;;;;;;;9.15;3.58;;;17.40;99.90;;;;;;4972048;28;20205;-49
2022/08/21 02:36:14;;;;;;;8.77;3.92;;;17.50;99.90;;;;;;4972238;28;20065;-50
2022/08/21 02:38:41;;;;;;;8.27;3.67;;;17.50;99.90;;;;;;4972303;28;20018;-51
2022/08/21 02:41:11;;;;;;;8.52;4.05;;;17.50;99.90;;;;;;4972045;28;20031;-51
2022/08/21 02:43:37;;;;;;;9.75;4.03;;;17.50;99.90;;;;;;4971318;28;20031;-53
2022/08/21 02:46:04;;;;;;;10.15;5.20;;;17.50;99.90;;;;;;4972129;28;20078;-50
2022/08/21 02:48:31;;;;;;;6.40;3.78;;;17.40;99.90;;;;;;4972071;28;20097;-49
2022/08/21 02:51:00;;;;;;;6.38;3.50;;;17.40;99.90;;;;;;4972064;28;20031;-49
2022/08/21 02:53:26;;;;;;;6.55;4.35;;;17.40;99.90;;;;;;4971810;28;20046;-51
2022/08/21 02:55:53;;;;;;;5.05;3.65;;;17.30;99.90;;;;;;4971996;28;20117;-49
2022/08/21 02:58:24;;;;;;;6.95;3.65;;;17.30;99.90;;;;;;4975608;28;20030;-50
2022/08/21 03:00:51;;;;;;;5.25;3.28;;;17.30;99.90;;;;;;4975396;28;20070;-49
2022/08/21 03:03:17;;;;;;;6.80;4.18;;;17.20;99.90;;;;;;4975328;28;20451;-50
2022/08/21 03:05:43;;;;;;;7.65;4.28;;;17.10;99.90;;;;;;4975452;28;20027;-48
2022/08/21 03:08:11;;;;;;;6.93;4.00;;;17.00;99.90;;;;;;4975498;28;20499;-50
2022/08/21 03:10:44;;;;;;;8.85;3.92;;;17.00;99.90;;;;;;4975296;28;20165;-50
2022/08/21 03:13:11;;;;;;;8.80;3.95;;;17.00;99.90;;;;;;4975084;28;20027;-51
2022/08/21 03:15:37;;;;;;;6.20;4.07;;;16.90;99.90;;;;;;4973978;28;20459;-51
2022/08/21 03:18:04;;;;;;;7.97;3.83;;;16.80;99.90;;;;;;4973932;28;20033;-52
2022/08/21 03:20:32;;;;;;;8.50;4.07;;;16.80;99.90;;;;;;4975147;28;20027;-52
2022/08/21 03:22:58;;;;;;;9.88;3.38;;;16.70;99.90;;;;;;4974748;28;20043;-49
2022/08/21 03:25:25;;;;;;;6.18;3.92;;;16.60;99.90;;;;;;4975079;28;20077;-48
2022/08/21 03:27:50;;;;;;;5.88;4.40;;;16.50;99.90;;;;;;4975178;28;20018;-49
2022/08/21 03:30:18;;;;;;;8.77;4.22;;;16.50;99.90;;;;;;4975102;28;20031;-50
2022/08/21 03:32:44;;;;;;;8.13;3.92;;;16.50;99.90;;;;;;4973358;28;20030;-50
2022/08/21 03:35:09;;;;;;;6.90;4.18;;;16.50;99.90;;;;;;4975008;28;20400;-50
2022/08/21 03:37:36;;;;;;;5.45;3.58;;;16.60;99.90;;;;;;4974785;28;20030;-51
2022/08/21 03:40:04;;;;;;;7.38;3.63;;;16.60;99.90;;;;;;4974867;28;20469;-51
2022/08/21 03:42:29;;;;;;;8.02;3.83;;;16.60;99.90;;;;;;4972554;28;20492;-51
2022/08/21 03:44:55;;;;;;;10.07;3.95;;;16.60;99.90;;;;;;4974798;28;20038;-51
2022/08/21 03:47:21;;;;;;;8.18;4.60;;;16.60;99.90;;;;;;4974679;28;20027;-51
2022/08/21 03:49:47;;;;;;;8.93;4.25;;;16.50;99.90;;;;;;4975233;28;20053;-50
2022/08/21 03:52:13;;;;;;;6.13;3.55;;;16.40;99.90;;;;;;4974476;28;20022;-50
2022/08/21 03:54:41;;;;;;;7.13;3.63;;;16.40;99.90;;;;;;4974486;28;20050;-50
2022/08/21 03:57:07;;;;;;;6.72;4.00;;;16.40;99.90;;;;;;4974538;28;20054;-50
2022/08/21 03:59:32;;;;;;;8.20;4.00;;;16.40;99.90;;;;;;4974584;28;20492;-50
2022/08/21 04:02:00;;;;;;;7.05;4.38;;;16.40;99.90;;;;;;4974110;28;20038;-50
2022/08/21 04:04:27;;;;;;;7.90;3.78;;;16.50;99.90;;;;;;4974441;28;20031;-50
2022/08/21 04:06:54;;;;;;;7.50;4.68;;;16.40;99.90;;;;;;4975085;28;20023;-49
2022/08/21 04:09:19;;;;;;;6.75;4.22;;;16.40;99.90;;;;;;4974274;28;20015;-48
2022/08/21 04:11:46;;;;;;;8.70;4.35;;;16.30;99.90;;;;;;4974602;28;20448;-53
2022/08/21 04:14:13;;;;;;;8.55;4.15;;;16.40;99.90;;;;;;4974136;28;20089;-50
2022/08/21 04:16:38;;;;;;;6.60;4.20;;;16.40;99.90;;;;;;4974076;28;20074;-51
2022/08/21 04:19:04;;;;;;;10.70;4.32;;;16.40;99.90;;;;;;4974229;28;20481;-50
2022/08/21 04:21:31;;;;;;;7.63;4.05;;;16.40;99.90;;;;;;4974043;28;20038;-53
2022/08/21 04:23:56;;;;;;;9.95;3.70;;;16.40;99.90;;;;;;4973732;28;20023;-49
2022/08/21 04:26:22;;;;;;;3.97;3.10;;;16.50;99.90;;;;;;4972724;28;20073;-49
2022/08/21 04:28:48;;;;;;;9.35;4.25;;;16.50;99.90;;;;;;4972721;28;20095;-50
2022/08/21 04:31:13;;;;;;;5.75;4.20;;;16.50;99.90;;;;;;4973744;28;20219;-47
2022/08/21 04:33:39;;;;;;;6.35;3.75;;;16.60;99.90;;;;;;4973551;28;20102;-47
2022/08/21 04:36:05;;;;;;;9.77;4.10;;;16.60;99.90;;;;;;4973838;28;20059;-50
2022/08/21 04:38:33;;;;;;;7.40;4.18;;;16.60;99.90;;;;;;4973776;28;20042;-49
2022/08/21 04:40:58;;;;;;;8.10;3.92;;;16.60;99.90;;;;;;4973669;28;20480;-51
2022/08/21 04:43:24;;;;;;;10.50;5.10;;;16.60;99.90;;;;;;4972891;28;20030;-47
2022/08/21 04:45:51;;;;;;;9.52;4.78;;;16.60;99.90;;;;;;4973766;28;20023;-50
2022/08/21 04:48:20;;;;;;;8.63;5.15;;;16.60;99.90;;;;;;4972415;28;20027;-51
2022/08/21 04:51:06;;;;;;;9.13;5.07;;;16.70;99.90;;;;;;4973702;28;20022;-51
2022/08/21 04:53:43;;;;;;;8.32;4.47;;;16.70;99.90;;;;;;4973063;28;20130;-50
2022/08/21 04:56:13;;;;;;;11.70;4.47;;;16.80;99.90;;;;;;4973517;28;20034;-50
2022/08/21 04:58:39;;;;;;;8.27;4.13;;;16.80;99.90;;;;;;4973512;28;20027;-48
2022/08/21 05:01:09;;;;;;;6.82;4.40;;;16.90;99.90;;;;;;4973413;28;20034;-47
2022/08/21 05:03:37;;;;;;;7.25;4.30;;;17.00;99.90;;;;;;4973385;28;20388;-47
2022/08/21 05:06:09;;;;;;;8.60;4.88;;;17.20;99.90;;;;;;4973435;28;20027;-51
2022/08/21 05:08:36;;;;;;;8.57;4.80;;;17.40;99.90;;;;;;4971939;28;20080;-50
2022/08/21 05:11:03;;;;;;;9.35;4.32;;;17.50;99.90;;;;;;4973185;28;20054;-48
2022/08/21 05:13:29;;;;;;;7.35;4.20;;;17.80;99.90;;;;;;4972926;28;20110;-48
2022/08/21 05:15:55;;;;;;;13.00;4.60;;;18.10;99.90;;;;;;4973273;28;20497;-48
2022/08/21 05:18:21;;;;;;;8.43;4.30;;;18.60;99.90;;;;;;4973090;28;20031;-49
2022/08/21 05:20:46;;;;;;;11.02;4.28;;;19.10;99.90;;;;;;4972741;28;20074;-52
2022/08/21 05:23:14;;;;;;;5.43;4.68;;;19.60;99.90;;;;;;4972658;28;20453;-49
2022/08/21 05:25:40;;;;;;;7.70;5.30;;;20.20;99.90;;;;;;4971916;28;20023;-52
2022/08/21 05:28:06;;;;;;;7.30;4.00;;;20.60;99.90;;;;;;4973210;28;20565;-48
2022/08/21 05:30:33;;;;;;;7.03;4.50;;;21.00;99.90;;;;;;4972984;28;20039;-52
2022/08/21 05:33:01;;;;;;;11.60;4.95;;;21.30;99.60;;;;;;4972530;28;20034;-52
2022/08/21 05:35:28;;;;;;;7.50;4.25;;;21.80;98.70;;;;;;4972933;28;20023;-47
2022/08/21 05:37:54;;;;;;;7.97;3.58;;;22.10;98.30;;;;;;4972979;28;20031;-46
2022/08/21 05:40:20;;;;;;;8.25;4.35;;;22.50;97.30;;;;;;4972820;28;20080;-47
2022/08/21 05:42:46;;;;;;;9.95;4.40;;;22.90;96.70;;;;;;4972160;28;20499;-51
2022/08/21 05:45:12;;;;;;;5.68;3.70;;;23.20;95.60;;;;;;4972755;28;20027;-48
2022/08/21 05:47:37;;;;;;;6.90;3.80;;;23.60;95.30;;;;;;4972670;28;20027;-48
2022/08/21 05:50:04;;;;;;;6.57;3.53;;;23.90;94.50;;;;;;4972815;28;20110;-47
2022/08/21 05:52:29;;;;;;;6.28;3.58;;;24.10;93.10;;;;;;4972259;28;20031;-46
2022/08/21 05:54:55;;;;;;;8.65;4.00;;;24.40;93.30;;;;;;4972531;28;20035;-49
2022/08/21 05:57:21;;;;;;;4.72;3.45;;;24.60;92.30;;;;;;4971319;28;20078;-47
2022/08/21 05:59:47;;;;;;;7.38;3.42;;;24.90;92.20;;;;;;4972751;28;20058;-48
2022/08/21 06:02:12;;;;;;;8.80;3.47;;;25.30;90.90;;;;;;4970203;28;20038;-47
2022/08/21 06:04:39;;;;;;;7.82;3.80;;;25.30;90.70;;;;;;4963325;28;20300;-47
2022/08/21 06:07:05;;;;;;;11.15;2.78;;;25.50;90.80;;;;;;4953324;29;20031;-48
2022/08/21 06:09:30;;;;;;;7.75;3.05;;;25.60;89.80;;;;;;4965598;28;20034;-51
2022/08/21 06:11:56;;;;;;;7.85;2.70;;;26.10;87.90;;;;;;4971657;28;20030;-47
2022/08/21 06:14:21;;;;;;;6.32;2.78;;;26.30;86.80;;;;;;4971741;28;20043;-49
2022/08/21 06:16:47;;;;;;;7.63;2.95;;;26.40;86.50;;;;;;4971688;28;20066;-52
2022/08/21 06:19:12;;;;;;;7.55;3.28;;;27.00;84.40;;;;;;4972213;28;20565;-47
2022/08/21 06:21:38;;;;;;;6.43;3.53;;;27.20;83.10;;;;;;4971708;28;20101;-50
2022/08/21 06:24:05;;;;;;;6.65;3.28;;;27.20;82.70;;;;;;4970431;28;20392;-48
2022/08/21 06:26:31;;;;;;;9.52;3.75;;;27.20;83.70;;;;;;4971977;28;20031;-47
2022/08/21 06:28:57;;;;;;;7.43;3.60;;;27.60;82.30;;;;;;4971233;28;20023;-47
2022/08/21 06:31:25;;;;;;;10.52;3.28;;;27.50;81.90;;;;;;4972933;28;20113;-57
2022/08/21 06:33:51;;;;;;;6.03;2.95;;;27.60;82.00;;;;;;4970929;28;20035;-49
2022/08/21 06:36:17;;;;;;;5.28;2.90;;;27.80;81.00;;;;;;4976009;28;20030;-46
2022/08/21 06:38:43;;;;;;;9.75;2.97;;;27.80;80.40;;;;;;4975981;28;20451;-48
2022/08/21 06:41:08;;;;;;;5.80;2.60;;;28.20;79.00;;;;;;4975775;28;20109;-48
2022/08/21 06:43:34;;;;;;;9.93;3.67;;;28.40;78.50;;;;;;4975094;28;20050;-49
2022/08/21 06:46:00;;;;;;;6.25;3.53;;;28.60;78.40;;;;;;4975981;28;20026;-49
2022/08/21 06:48:25;;;;;;;6.57;3.05;;;28.90;78.30;;;;;;4975899;28;20416;-52
2022/08/21 06:50:51;;;;;;;5.35;3.10;;;29.30;76.90;;;;;;4975727;28;20085;-48
2022/08/21 06:53:18;;;;;;;4.05;2.65;;;29.50;75.20;;;;;;4975180;28;20034;-52
2022/08/21 06:55:44;;;;;;;9.15;4.78;;;28.70;75.50;;;;;;4975757;28;20436;-49
2022/08/21 06:58:12;;;;;;;7.60;3.20;;;28.30;76.50;;;;;;4975690;28;20039;-49
2022/08/21 07:00:44;;;;;;;8.82;3.53;;;28.60;76.70;;;;;;4975527;28;20046;-50
2022/08/21 07:03:20;;;;;;;6.00;3.10;;;29.40;76.70;;;;;;4975103;28;20143;-47
2022/08/21 07:05:46;;;;;;;7.05;3.10;;;30.00;74.90;;;;;;4975483;28;20037;-49
2022/08/21 07:08:11;;;;;;;4.40;2.25;;;30.30;73.40;;;;;;4974124;28;20125;-52
2022/08/21 07:10:37;;;;;;;10.13;2.67;;;30.60;72.50;;;;;;4975453;28;20027;-50
2022/08/21 07:13:02;;;;;;;4.90;2.60;;;30.50;72.60;;;;;;4973707;28;20133;-45
2022/08/21 07:15:29;;;;;;;10.40;3.10;;;30.60;72.30;;;;;;4974196;28;20112;-44
2022/08/21 07:17:54;;;;;;;8.18;3.00;;;30.60;72.50;;;;;;4975299;28;20031;-47
2022/08/21 07:20:20;;;;;;;8.70;3.40;;;30.30;72.40;;;;;;4975804;28;20101;-46
2022/08/21 07:22:46;;;;;;;7.20;2.78;;;30.30;72.70;;;;;;4973433;28;20567;-48
2022/08/21 07:25:11;;;;;;;6.78;2.95;;;30.50;72.30;;;;;;4974110;28;20076;-46
2022/08/21 07:27:37;;;;;;;4.43;2.60;;;30.90;71.80;;;;;;4975312;28;20023;-50
2022/08/21 07:30:04;;;;;;;3.72;2.60;;;31.40;71.40;;;;;;4975325;28;20407;-46
2022/08/21 07:32:30;;;;;;;8.27;3.50;;;31.60;70.00;;;;;;4973481;28;20515;-48
2022/08/21 07:34:56;;;;;;;4.43;2.78;;;31.70;69.90;;;;;;4975109;28;20023;-49
2022/08/21 07:37:21;;;;;;;6.82;3.22;;;31.90;70.00;;;;;;4973779;28;20073;-50
2022/08/21 07:39:48;;;;;;;5.88;3.03;;;31.90;69.50;;;;;;4974774;28;20110;-47
2022/08/21 07:42:15;;;;;;;13.98;3.10;;;32.30;69.20;;;;;;4974657;28;20018;-47
2022/08/21 07:44:40;;;;;;;10.50;3.63;;;32.70;68.80;;;;;;4974790;28;20031;-49
2022/08/21 07:47:06;;;;;;;4.72;2.70;;;32.30;67.80;;;;;;4974877;28;20082;-49
2022/08/21 07:49:31;;;;;;;6.68;2.80;;;32.10;68.20;;;;;;4975063;28;20029;-47
2022/08/21 07:51:57;;;;;;;11.07;3.75;;;31.80;68.40;;;;;;4974427;28;20034;-45
2022/08/21 07:54:23;;;;;;;5.90;3.00;;;31.90;69.00;;;;;;4973239;28;20033;-45
2022/08/21 07:56:48;;;;;;;10.10;3.40;;;32.70;68.80;;;;;;4974681;28;20426;-45
2022/08/21 07:59:14;;;;;;;8.15;3.30;;;33.20;67.10;;;;;;4994105;28;20033;-49
2022/08/21 08:01:39;;;;;;;7.13;2.95;;;33.50;66.90;;;;;;4984052;28;20023;-48
2022/08/21 08:04:05;;;;;;;6.22;2.80;;;33.50;66.70;;;;;;4974418;28;20060;-50
2022/08/21 08:06:31;;;;;;;5.85;3.00;;;33.70;66.10;;;;;;4974826;28;20037;-48
2022/08/21 08:08:56;;;;;;;4.78;2.42;;;33.80;65.50;;;;;;4972540;28;20031;-50
2022/08/21 08:11:22;;;;;;;5.47;2.20;;;33.90;65.70;;;;;;4974406;28;20077;-48
2022/08/21 08:13:49;;;;;;;8.38;2.70;;;34.30;65.20;;;;;;4973979;28;20027;-48
2022/08/21 08:16:16;;;;;;;6.25;3.20;;;34.50;65.40;;;;;;4972700;28;20030;-49
2022/08/21 08:18:41;;;;;;;6.35;3.05;;;34.70;64.20;;;;;;4974619;28;20069;-51
2022/08/21 08:21:08;;;;;;;5.28;2.95;;;34.60;64.70;;;;;;4974264;28;20023;-48
2022/08/21 08:23:34;;;;;;;6.43;2.92;;;34.70;64.60;;;;;;4972835;28;20117;-46
2022/08/21 08:26:00;;;;;;;5.68;3.13;;;34.50;65.00;;;;;;4974345;28;20126;-48
2022/08/21 08:28:26;;;;;;;5.50;3.17;;;34.70;64.40;;;;;;4974256;28;20022;-51
2022/08/21 08:30:52;;;;;;;4.57;2.80;;;34.70;64.90;;;;;;4977910;28;20041;-48
2022/08/21 08:33:18;;;;;;;7.28;2.70;;;34.80;64.90;;;;;;4987468;28;20023;-47
2022/08/21 08:35:47;;;;;;;4.47;3.55;;;34.90;65.20;;;;;;4974332;28;20027;-46
2022/08/21 08:38:16;;;;;;;6.15;3.28;;;34.70;64.80;;;;;;4973971;28;20023;-47
2022/08/21 08:40:47;;;;;;;7.70;3.53;;;35.10;64.70;;;;;;4974083;28;20080;-49
2022/08/21 08:43:14;;;;;;;14.20;3.70;;;35.70;64.00;;;;;;4972160;28;20027;-45
2022/08/21 08:45:43;;;;;;;8.85;4.00;;;35.50;63.40;;;;;;4973863;28;20031;-49
2022/08/21 08:48:14;;;;;;;8.57;3.60;;;35.20;63.70;;;;;;4973770;28;20105;-50
2022/08/21 08:50:43;;;;;;;6.70;2.92;;;35.20;64.60;;;;;;4989935;28;20098;-48
2022/08/21 08:53:15;;;;;;;5.95;3.75;;;35.40;63.90;;;;;;4990982;28;20120;-50
2022/08/21 08:55:43;;;;;;;8.77;4.72;;;35.30;64.00;;;;;;4991150;28;20338;-46
2022/08/21 08:58:20;;;;;;;7.50;4.28;;;35.60;64.40;;;;;;4990125;28;20034;-46
2022/08/21 09:00:48;;;;;;;6.28;4.68;;;35.70;63.90;;;;;;4972179;28;20499;-49
2022/08/21 09:03:15;;;;;;;5.10;3.08;;;35.50;64.00;;;;;;4972021;28;20038;-47
2022/08/21 09:06:29;;;;;;;6.00;2.88;;;35.20;64.40;;;;;;4972720;28;20031;-49
2022/08/21 09:08:59;;;;;;;7.00;3.70;;;34.90;64.50;;;;;;4934038;28;20040;-47
2022/08/21 09:11:44;;;;;;;6.85;3.78;;;33.90;65.30;;;;;;4972918;28;20031;-44
2022/08/21 09:14:36;;;;;;;10.30;3.83;;;32.70;67.70;;;;;;4971992;28;20061;-47
2022/08/21 09:17:38;;;;;;;9.07;4.18;;;32.00;69.20;;;;;;4972764;28;20034;-49
2022/08/21 09:20:22;;;;;;;7.50;4.22;;;31.60;70.10;;;;;;4978155;28;20035;-46
2022/08/21 09:23:05;;;;;;;12.88;4.03;;;31.40;70.70;;;;;;4972402;28;20034;-48
2022/08/21 09:25:42;;;;;;;3.90;3.50;;;31.30;70.50;;;;;;4964978;28;20439;-49
2022/08/21 09:28:12;;;;;;;5.85;3.30;;;31.60;71.00;;;;;;4972325;28;20029;-46
2022/08/21 09:30:40;;;;;;;7.75;4.13;;;31.70;70.10;;;;;;4972382;28;20023;-47
2022/08/21 09:33:06;;;;;;;12.13;4.00;;;31.80;69.70;;;;;;4960910;28;20050;-45
2022/08/21 09:35:34;;;;;;;5.95;3.50;;;31.80;69.70;;;;;;4952888;28;20035;-46
2022/08/21 09:38:05;;;;;;;8.32;3.83;;;31.10;69.00;;;;;;4956745;28;20086;-46
2022/08/21 09:40:45;;;;;;;4.70;2.63;;;31.00;69.10;;;;;;4970565;28;20031;-49
2022/08/21 09:43:19;;;;;;;7.97;3.13;;;31.00;68.20;;;;;;4969921;28;20279;-45
2022/08/21 09:45:46;;;;;;;;;;;30.80;66.20;;;;;;4971761;28;20027;-48
2022/08/21 09:48:22;;;;;;;5.93;2.88;;;30.80;65.50;;;;;;4970838;28;20376;-47
2022/08/21 09:50:49;;;;;;;5.90;2.70;;;31.00;67.20;;;;;;4971371;28;20039;-44
2022/08/21 09:53:26;;;;;;;6.80;3.13;;;30.80;68.00;;;;;;4970952;28;20035;-45
2022/08/21 09:58:47;;;;;;;22.55;13.80;;;30.30;68.30;;;;;;4972147;28;20030;-45
2022/08/21 10:01:15;;;;;;;8.77;4.10;;;30.20;67.30;;;;;;4972167;28;20509;-46
2022/08/21 10:03:41;;;;;;;5.35;3.17;;;29.90;68.80;;;;;;4972055;28;20034;-47
2022/08/21 10:06:09;;;;;;;6.22;2.97;;;29.30;69.80;;;;;;4972883;28;20027;-51
2022/08/21 10:08:38;;;;;;;9.07;2.80;;;29.10;70.00;;;;;;4976022;28;20547;-48
2022/08/21 10:11:13;;;;;;;5.82;2.78;;;29.20;69.20;;;;;;4981899;28;20034;-45
2022/08/21 10:14:12;;;;;;;6.40;2.80;;;29.10;67.30;;;;;;4996000;28;20226;-48
2022/08/21 10:16:50;;;;;;;5.57;2.78;;;28.90;67.40;;;;;;4957132;28;20027;-49
2022/08/21 10:19:43;;;;;;;3.78;2.30;;;28.60;66.60;;;;;;4955515;29;20031;-47
2022/08/21 10:22:23;;;;;;;12.27;3.38;;;28.60;67.30;;;;;;4965877;28;20042;-50
2022/08/21 10:25:25;;;;;;;8.02;3.00;;;28.30;68.60;;;;;;4995590;28;20105;-47
2022/08/21 10:28:03;;;;;;;8.13;2.97;;;28.40;69.50;;;;;;4995539;28;20026;-45
2022/08/21 10:30:38;;;;;;;6.85;2.95;;;28.30;70.40;;;;;;4995356;28;20503;-45
2022/08/21 10:33:26;;;;;;;7.32;2.97;;;28.30;70.90;;;;;;4980104;28;20039;-48
2022/08/21 10:36:20;;;;;;;7.15;2.72;;;28.30;70.10;;;;;;4976167;28;20026;-50
2022/08/21 10:38:55;;;;;;;5.85;2.72;;;28.10;70.50;;;;;;4960894;28;20512;-46
2022/08/21 10:41:35;;;;;;;6.57;2.85;;;28.20;70.40;;;;;;4993790;28;20030;-49
2022/08/21 10:44:51;;;;;;;4.47;2.58;;;28.10;71.00;;;;;;4993819;28;20507;-47
2022/08/21 10:47:22;;;;;;;;;;;28.00;70.20;;;;;;4969488;28;20038;-46
2022/08/21 10:50:16;;;;;;;4.60;2.70;;;28.10;70.30;;;;;;4990159;28;19965;-45
2022/08/21 10:53:19;;;;;;;6.00;2.78;;;27.90;70.80;;;;;;4974625;28;20029;-48
2022/08/21 10:55:50;;;;;;;6.80;3.25;;;27.90;69.80;;;;;;4973593;28;20030;-47
2022/08/21 10:58:28;;;;;;;9.75;3.25;;;27.80;70.60;;;;;;4975549;28;20041;-45
2022/08/21 11:01:12;;;;;;;6.47;2.55;;;27.70;70.10;;;;;;4974529;28;20111;-48
2022/08/21 11:04:20;;;;;;;4.03;2.60;;;27.60;71.50;;;;;;4957099;28;20460;-49
2022/08/21 11:06:52;;;;;;;11.88;3.50;;;27.60;71.30;;;;;;4966564;28;20031;-47
2022/08/21 11:09:23;;;;;;;6.13;3.42;;;27.50;70.90;;;;;;4975229;28;20084;-48
2022/08/21 11:12:01;;;;;;;8.88;4.28;;;27.40;72.20;;;;;;4975022;28;20027;-49
2022/08/21 11:14:38;;;;;;;9.68;3.42;;;27.20;73.10;;;;;;4974717;28;20062;-47
2022/08/21 11:17:12;;;;;;;7.63;3.13;;;27.10;72.70;;;;;;4973313;28;20030;-46
2022/08/21 11:19:50;;;;;;;8.80;3.35;;;27.10;72.20;;;;;;4974697;28;20058;-48
2022/08/21 11:22:25;;;;;;;8.73;3.20;;;27.00;72.00;;;;;;4974960;28;20047;-50
2022/08/21 11:25:02;;;;;;;7.43;3.25;;;27.10;71.60;;;;;;4974026;28;20039;-46
2022/08/21 11:27:47;;;;;;;8.07;3.42;;;27.00;72.40;;;;;;4972522;28;20246;-48
2022/08/21 11:30:13;;;;;;;6.80;3.25;;;26.90;72.50;;;;;;4964131;28;20045;-45
2022/08/21 11:32:45;;;;;;;9.48;4.15;;;26.80;71.60;;;;;;4974053;28;20039;-45
2022/08/21 11:35:25;;;;;;;6.70;2.80;;;26.70;71.60;;;;;;4974356;28;20607;-47
2022/08/21 11:38:19;;;;;;;5.53;2.90;;;26.60;72.00;;;;;;4972877;28;20031;-46
2022/08/21 11:41:03;;;;;;;7.43;2.97;;;26.50;72.70;;;;;;4973770;28;20042;-47
2022/08/21 11:43:47;;;;;;;8.73;4.18;;;26.40;72.50;;;;;;4974205;28;20042;-47
2022/08/21 11:46:34;;;;;;;8.20;2.70;;;26.30;72.20;;;;;;4974918;28;20029;-47
2022/08/21 11:49:09;;;;;;;8.57;2.70;;;26.30;73.30;;;;;;4973654;28;20919;-50
2022/08/21 11:52:10;;;;;;;7.43;3.40;;;26.40;72.90;;;;;;4974127;28;20058;-50
2022/08/21 11:54:44;;;;;;;5.63;2.90;;;26.40;72.30;;;;;;4970759;28;20046;-48
2022/08/21 11:57:24;;;;;;;7.85;3.25;;;26.40;72.00;;;;;;4973920;28;20035;-51
2022/08/21 12:00:16;;;;;;;5.88;2.70;;;26.30;72.20;;;;;;4974076;28;20030;-50
2022/08/21 12:03:06;;;;;;;7.45;2.90;;;26.30;73.20;;;;;;4973759;28;20174;-49
2022/08/21 12:05:36;;;;;;;5.47;3.30;;;26.50;73.50;;;;;;4954668;28;20114;-51
2022/08/21 12:08:10;;;;;;;5.03;2.70;;;26.40;72.50;;;;;;4955226;28;20031;-48
2022/08/21 12:10:39;;;;;;;;;;;26.50;72.60;;;;;;4955128;28;20027;-49
2022/08/21 12:13:09;;;;;;;7.07;3.03;;;26.50;72.80;;;;;;4954216;28;19906;-49
2022/08/21 12:15:34;;;;;;;6.70;2.70;;;26.50;71.60;;;;;;4954537;28;20579;-49
2022/08/21 12:18:02;;;;;;;9.40;2.78;;;26.60;71.20;;;;;;4969396;28;20034;-48
2022/08/21 12:20:41;;;;;;;7.72;2.42;;;26.70;70.60;;;;;;4974223;28;20026;-47
2022/08/21 12:23:09;;;;;;;6.85;2.70;;;26.70;71.40;;;;;;4973810;28;20420;-48
2022/08/21 12:25:45;;;;;;;5.93;2.67;;;26.60;71.20;;;;;;4972150;28;20189;-46
2022/08/21 12:28:21;;;;;;;6.07;2.50;;;26.50;70.70;;;;;;4973390;28;20105;-47
2022/08/21 12:30:48;;;;;;;6.65;2.95;;;26.50;71.30;;;;;;4971720;28;20062;-45
2022/08/21 12:33:39;;;;;;;13.10;4.18;;;26.40;70.30;;;;;;4971994;28;20022;-49
2022/08/21 12:36:20;;;;;;;63.95;46.88;;;26.60;70.10;;;;;;4973700;28;20046;-50
2022/08/21 12:38:51;;;;;;;30.88;20.75;;;26.70;69.40;;;;;;4973322;28;20025;-50
2022/08/21 12:41:34;;;;;;;6.55;3.55;;;26.70;70.00;;;;;;4971808;28;20508;-50
2022/08/21 12:44:01;;;;;;;9.15;3.38;;;26.70;70.60;;;;;;4972834;28;20030;-46
2022/08/21 12:46:36;;;;;;;7.38;3.22;;;26.80;69.60;;;;;;4972105;28;20027;-46
2022/08/21 12:49:22;;;;;;;;;;;26.70;70.00;;;;;;4973190;28;20208;-48
2022/08/21 12:51:57;;;;;;;6.03;2.55;;;26.80;70.60;;;;;;4972953;28;19910;-46
2022/08/21 12:54:36;;;;;;;6.15;2.42;;;26.90;70.40;;;;;;4973536;28;20109;-48
2022/08/21 12:57:04;;;;;;;8.68;2.67;;;27.00;68.50;;;;;;4972932;28;20500;-47
2022/08/21 12:59:31;;;;;;;4.03;2.42;;;27.00;67.90;;;;;;4973838;28;20030;-50
2022/08/21 13:01:59;;;;;;;5.32;2.50;;;26.90;69.00;;;;;;4973405;28;20023;-48
2022/08/21 13:04:37;;;;;;;7.30;2.90;;;26.90;70.10;;;;;;4973918;28;20054;-50